Pagina principală
METAR-TAF:

METAR-TAF

Aeroporturi :

Pago Pago, Insulele Minore Îndepărtate ale Statelor Unite

Latitudine: 14-20S, longitudine: 170-43W, elevație: 3 m

Observații meteo curente

Raportul a fost făcut în urmă cu 31 de minute, la 02:50 UTC
Vânt 5 kt din direcții variabile
Temperatură 28°C
Umiditate 84%
Presiune 1009 hPa
Vizibilitate: 17.7 km
Nori puțini la o înălțime de 2000 picior
Nori împrăștiați la o înălțime de 4000 picior
Total acoperit la o înălțime de 10000 picior
averse de ploaie slabă

METAR: NSTU 020250Z VRB05KT 11SM -SHRA FEW020 SCT040 OVC100 28/25 A2980 RMK SHRAB43 SLP093 60000 8/42/ T02820253 57010

Ora: 16:21 (03:21 UTC)


TAF: lipsă

Observații și prognoze meteo pentru peste 4.000 de aeroporturi (rapoarte METAR și TAF).

Stațiile disponibile sunt reprezentate pe hartă prin puncte galbene și roșii.

Țineți indicatorul mouse-ului pe punctul dorit pentru a vedea denumirea stației.

Apoi, faceți clic pentru a vedea observațiile și prognozele meteorologice.

Pentru a schimba harta: Pentru mărire, faceți clic pe butoanele verzi cu cruce neagră; pentru micșorare, pe butonul verde cu o liniuță; pentru hărți învecinate, pe săgețile verzi.


METAR-TAF: